createdAt,value
2023-03-29T00:01:36.190Z,7.36
2023-03-29T00:04:06.519Z,7.34
2023-03-29T00:06:34.039Z,7.41
2023-03-29T00:09:01.910Z,7.47
2023-03-29T00:11:28.889Z,7.53
2023-03-29T00:13:55.545Z,7.66
2023-03-29T00:16:22.831Z,7.75
2023-03-29T00:18:49.421Z,7.82
2023-03-29T00:21:17.290Z,7.87
2023-03-29T00:23:43.922Z,7.98
2023-03-29T00:26:10.856Z,7.88
2023-03-29T00:28:37.452Z,7.79
2023-03-29T00:31:12.243Z,7.80
2023-03-29T00:33:39.593Z,7.86
2023-03-29T00:36:08.873Z,7.83
2023-03-29T00:38:35.802Z,7.88
2023-03-29T00:41:04.251Z,7.99
2023-03-29T00:43:31.152Z,8.05
2023-03-29T00:45:57.813Z,7.95
2023-03-29T00:48:30.100Z,7.80
2023-03-29T00:51:03.108Z,7.81
2023-03-29T00:53:35.766Z,7.94
2023-03-29T00:56:15.982Z,8.03
2023-03-29T00:59:08.169Z,8.07
2023-03-29T01:01:45.500Z,8.09
2023-03-29T01:04:25.312Z,8.08
2023-03-29T01:07:06.610Z,7.83
2023-03-29T01:09:37.809Z,7.63
2023-03-29T01:12:12.238Z,7.54
2023-03-29T01:14:49.129Z,7.48
2023-03-29T01:17:16.218Z,7.50
2023-03-29T01:19:47.700Z,7.52
2023-03-29T01:22:14.797Z,7.52
2023-03-29T01:24:52.723Z,7.56
2023-03-29T01:27:31.782Z,7.60
2023-03-29T01:30:07.654Z,7.50
2023-03-29T01:33:06.347Z,7.48
2023-03-29T01:35:51.178Z,7.49
2023-03-29T01:38:25.887Z,7.45
2023-03-29T01:40:52.520Z,7.44
2023-03-29T01:43:27.812Z,7.47
2023-03-29T01:46:14.477Z,7.50
2023-03-29T01:48:54.829Z,7.46
2023-03-29T01:51:26.724Z,7.42
2023-03-29T01:54:00.762Z,7.39
2023-03-29T01:56:29.487Z,7.33
2023-03-29T01:59:04.136Z,7.31
2023-03-29T02:01:38.460Z,7.34
2023-03-29T02:04:10.558Z,7.40
2023-03-29T02:06:37.912Z,7.25
2023-03-29T02:09:05.054Z,7.12
2023-03-29T02:11:32.163Z,7.01
2023-03-29T02:13:59.058Z,6.90
2023-03-29T02:16:25.741Z,6.90
2023-03-29T02:18:56.317Z,6.88
2023-03-29T02:21:58.179Z,6.81
2023-03-29T02:24:26.330Z,6.78
2023-03-29T02:26:52.985Z,6.85
2023-03-29T02:29:19.610Z,6.82
2023-03-29T02:32:00.161Z,6.70
2023-03-29T02:34:30.339Z,6.66
2023-03-29T02:37:06.861Z,6.63
2023-03-29T02:39:34.812Z,6.64
2023-03-29T02:42:03.630Z,6.69
2023-03-29T02:44:33.380Z,6.63
2023-03-29T02:47:17.992Z,6.59
2023-03-29T02:49:44.739Z,6.56
2023-03-29T02:52:18.925Z,6.58
2023-03-29T02:54:49.007Z,6.58
2023-03-29T02:57:15.788Z,6.68
2023-03-29T02:59:44.653Z,6.73
2023-03-29T03:02:12.323Z,6.75
2023-03-29T03:04:39.188Z,6.76
2023-03-29T03:07:05.868Z,6.75
2023-03-29T03:09:32.545Z,6.70
2023-03-29T03:11:59.162Z,6.61
2023-03-29T03:14:25.714Z,6.56
2023-03-29T03:16:52.824Z,6.51
2023-03-29T03:19:19.942Z,6.50
2023-03-29T03:21:47.136Z,6.58
2023-03-29T03:24:13.776Z,6.67
2023-03-29T03:26:40.373Z,6.75
2023-03-29T03:29:07.012Z,6.79
2023-03-29T03:31:33.747Z,6.86
2023-03-29T03:34:00.387Z,6.91
2023-03-29T03:36:29.544Z,6.94
2023-03-29T03:38:56.026Z,7.07
2023-03-29T03:41:22.768Z,7.10
2023-03-29T03:43:49.680Z,7.08
2023-03-29T03:46:17.343Z,7.08
2023-03-29T03:48:46.004Z,7.12
2023-03-29T03:51:13.090Z,7.04
2023-03-29T03:53:40.046Z,6.94
2023-03-29T03:56:09.195Z,6.89
2023-03-29T03:58:37.251Z,7.03
2023-03-29T04:01:05.006Z,7.07
2023-03-29T04:03:32.440Z,7.15
2023-03-29T04:06:02.721Z,7.20
2023-03-29T04:08:29.316Z,7.18
2023-03-29T04:10:58.416Z,7.16
2023-03-29T04:13:25.822Z,7.11
2023-03-29T04:15:58.108Z,7.07
2023-03-29T04:18:26.309Z,7.08
2023-03-29T04:20:53.013Z,7.14
2023-03-29T04:23:19.582Z,7.17
2023-03-29T04:25:46.266Z,7.11
2023-03-29T04:28:13.525Z,7.14
2023-03-29T04:30:40.290Z,7.18
2023-03-29T04:33:07.071Z,7.23
2023-03-29T04:35:33.801Z,7.20
2023-03-29T04:38:00.507Z,7.29
2023-03-29T04:40:27.423Z,7.33
2023-03-29T04:42:54.453Z,7.37
2023-03-29T04:45:21.399Z,7.41
2023-03-29T04:47:48.281Z,7.31
2023-03-29T04:50:15.847Z,7.38
2023-03-29T04:52:42.616Z,7.43
2023-03-29T04:55:09.433Z,7.51
2023-03-29T04:57:36.138Z,7.51
2023-03-29T05:00:13.737Z,7.59
2023-03-29T05:02:40.656Z,7.62
2023-03-29T05:05:07.553Z,7.67
2023-03-29T05:07:34.115Z,7.70
2023-03-29T05:10:00.844Z,7.75
2023-03-29T05:12:27.475Z,7.75
2023-03-29T05:14:54.138Z,7.76
2023-03-29T05:17:21.831Z,7.80
2023-03-29T05:19:48.443Z,7.82
2023-03-29T05:22:15.283Z,7.79
2023-03-29T05:24:42.211Z,7.72
2023-03-29T05:27:08.870Z,7.66
2023-03-29T05:29:35.583Z,7.64
2023-03-29T05:32:02.399Z,7.67
2023-03-29T05:34:29.805Z,7.74
2023-03-29T05:36:56.928Z,7.77
2023-03-29T05:39:24.000Z,7.84
2023-03-29T05:41:50.806Z,7.88
2023-03-29T05:44:17.464Z,8.01
2023-03-29T05:46:44.117Z,8.12
2023-03-29T05:49:10.735Z,8.25
2023-03-29T05:51:37.286Z,8.31
2023-03-29T05:54:04.081Z,8.38
2023-03-29T05:56:30.694Z,8.53
2023-03-29T05:58:57.256Z,8.79
2023-03-29T06:01:24.659Z,9.03
2023-03-29T06:03:52.510Z,9.31
2023-03-29T06:06:19.366Z,9.67
2023-03-29T06:08:46.474Z,10.05
2023-03-29T06:11:13.867Z,10.22
2023-03-29T06:13:42.195Z,10.59
2023-03-29T06:16:10.718Z,10.96
2023-03-29T06:18:40.297Z,11.09
2023-03-29T06:21:08.037Z,11.47
2023-03-29T06:23:36.359Z,11.71
2023-03-29T06:26:03.998Z,11.91
2023-03-29T06:28:30.664Z,12.18
2023-03-29T06:31:02.724Z,12.48
2023-03-29T06:33:30.977Z,12.85
2023-03-29T06:35:57.869Z,13.19
2023-03-29T06:38:26.807Z,13.35
2023-03-29T06:41:01.078Z,14.10
2023-03-29T06:43:27.800Z,14.50
2023-03-29T06:45:55.053Z,14.85
2023-03-29T06:48:21.696Z,14.94
2023-03-29T06:50:49.162Z,15.06
2023-03-29T06:53:16.134Z,15.45
2023-03-29T06:55:43.005Z,15.73
2023-03-29T06:58:09.650Z,15.88
2023-03-29T07:00:39.195Z,16.27
2023-03-29T07:03:08.259Z,16.70
2023-03-29T07:05:42.039Z,16.88
2023-03-29T07:08:08.743Z,16.99
2023-03-29T07:10:41.302Z,17.18
2023-03-29T07:13:11.113Z,17.80
2023-03-29T07:15:37.800Z,18.03
2023-03-29T07:18:05.080Z,18.41
2023-03-29T07:20:33.774Z,18.24
2023-03-29T07:23:00.741Z,18.62
2023-03-29T07:25:30.024Z,18.81
2023-03-29T07:27:56.783Z,18.74
2023-03-29T07:30:26.518Z,19.06
2023-03-29T07:32:54.117Z,19.16
2023-03-29T07:35:21.166Z,19.57
2023-03-29T07:37:47.915Z,19.30
2023-03-29T07:40:18.719Z,19.98
2023-03-29T07:42:56.630Z,19.69
2023-03-29T07:45:26.508Z,19.91
2023-03-29T07:47:58.679Z,19.98
2023-03-29T07:50:26.745Z,20.50
2023-03-29T07:52:53.872Z,20.40
2023-03-29T07:55:20.777Z,20.52
2023-03-29T07:57:49.194Z,19.81
2023-03-29T08:00:16.855Z,20.56
2023-03-29T08:02:49.841Z,21.27
2023-03-29T08:05:26.116Z,21.16
2023-03-29T08:07:56.396Z,19.98
2023-03-29T08:10:23.449Z,20.95
2023-03-29T08:12:50.628Z,21.24
2023-03-29T08:15:17.306Z,21.78
2023-03-29T08:17:44.344Z,21.92
2023-03-29T08:20:16.398Z,21.38
2023-03-29T08:22:43.282Z,22.20
2023-03-29T08:25:10.360Z,22.65
2023-03-29T08:27:37.815Z,21.41
2023-03-29T08:30:08.158Z,22.39
2023-03-29T08:32:35.522Z,22.84
2023-03-29T08:35:04.401Z,22.97
2023-03-29T08:37:32.641Z,22.54
2023-03-29T08:39:59.366Z,23.88
2023-03-29T08:42:52.840Z,23.85
2023-03-29T08:45:44.370Z,24.01
2023-03-29T08:48:22.990Z,23.60
2023-03-29T08:50:54.308Z,22.65
2023-03-29T08:53:29.151Z,22.63
2023-03-29T08:55:58.915Z,23.10
2023-03-29T08:58:29.146Z,22.24
2023-03-29T09:00:58.422Z,21.64
2023-03-29T09:03:30.204Z,22.33
2023-03-29T09:06:20.830Z,22.52
2023-03-29T09:08:50.190Z,21.89
2023-03-29T09:11:22.540Z,22.65
2023-03-29T09:14:04.073Z,23.09
2023-03-29T09:16:43.819Z,22.46
2023-03-29T09:19:34.703Z,22.57
2023-03-29T09:22:24.472Z,22.10
2023-03-29T09:25:50.735Z,22.79
2023-03-29T09:28:27.140Z,22.87
2023-03-29T09:31:06.464Z,22.68
2023-03-29T09:33:47.639Z,23.31
2023-03-29T09:36:23.784Z,23.12
2023-03-29T09:38:54.579Z,23.98
2023-03-29T09:41:41.621Z,23.34
2023-03-29T09:44:30.800Z,23.01
2023-03-29T09:47:28.129Z,23.68
2023-03-29T09:49:59.251Z,21.68
2023-03-29T09:52:26.324Z,22.54
2023-03-29T09:54:53.281Z,22.95
2023-03-29T09:57:20.675Z,23.51
2023-03-29T09:59:51.415Z,23.84
2023-03-29T10:02:21.153Z,23.89
2023-03-29T10:04:55.484Z,24.16
2023-03-29T10:07:22.779Z,23.94
2023-03-29T10:09:52.612Z,22.50
2023-03-29T10:12:20.231Z,22.70
2023-03-29T10:14:52.231Z,23.20
2023-03-29T10:17:25.233Z,23.68
2023-03-29T10:19:55.930Z,23.70
2023-03-29T10:22:25.607Z,23.67
2023-03-29T10:24:55.447Z,23.56
2023-03-29T10:27:29.213Z,23.24
2023-03-29T10:29:58.739Z,23.50
2023-03-29T10:32:33.858Z,23.39
2023-03-29T10:35:07.375Z,23.20
2023-03-29T10:37:34.355Z,23.15
2023-03-29T10:40:01.541Z,23.04
2023-03-29T10:42:28.654Z,22.08
2023-03-29T10:45:00.036Z,22.05
2023-03-29T10:47:34.570Z,21.76
2023-03-29T10:50:01.898Z,22.03
2023-03-29T10:52:29.878Z,21.56
2023-03-29T10:54:56.957Z,22.02
2023-03-29T10:57:34.107Z,21.36
2023-03-29T11:00:15.519Z,21.28
2023-03-29T11:02:50.966Z,21.10
2023-03-29T11:05:20.329Z,20.87
2023-03-29T11:08:04.166Z,20.45
2023-03-29T11:10:52.935Z,20.28
2023-03-29T11:13:38.161Z,20.25
2023-03-29T11:16:23.326Z,20.36
2023-03-29T11:19:03.799Z,20.48
2023-03-29T11:21:45.809Z,20.51
2023-03-29T11:25:02.439Z,20.83
2023-03-29T11:27:47.508Z,20.57
2023-03-29T11:30:25.822Z,20.79
2023-03-29T11:33:07.821Z,20.40
2023-03-29T11:35:56.338Z,20.19
2023-03-29T11:38:35.124Z,20.19
2023-03-29T11:41:02.764Z,20.19
2023-03-29T11:43:35.481Z,20.25
2023-03-29T11:46:29.690Z,20.26
2023-03-29T11:49:11.230Z,20.05
2023-03-29T11:51:59.643Z,20.05
2023-03-29T11:54:34.838Z,20.02
2023-03-29T11:57:10.364Z,20.10
2023-03-29T11:59:49.815Z,20.05
2023-03-29T12:02:46.338Z,20.16
2023-03-29T12:05:34.882Z,20.38
2023-03-29T12:08:09.690Z,20.30
2023-03-29T12:10:42.019Z,20.29
2023-03-29T12:13:14.361Z,20.37
2023-03-29T12:15:48.472Z,20.48
2023-03-29T12:18:40.988Z,20.38
2023-03-29T12:21:13.333Z,20.29
2023-03-29T12:23:43.312Z,20.37
2023-03-29T12:26:52.626Z,20.27
2023-03-29T12:29:28.341Z,20.25
2023-03-29T12:32:30.274Z,20.14
2023-03-29T12:35:15.432Z,20.23
2023-03-29T12:37:42.428Z,20.59
2023-03-29T12:40:16.233Z,20.95
2023-03-29T12:42:46.999Z,20.67
2023-03-29T12:45:20.489Z,20.74
2023-03-29T12:47:50.991Z,20.44
2023-03-29T12:50:37.949Z,20.60
2023-03-29T12:53:36.519Z,20.54
2023-03-29T12:56:03.746Z,20.49
2023-03-29T12:58:39.591Z,20.52
2023-03-29T13:01:08.741Z,20.63
2023-03-29T13:03:46.542Z,20.35
2023-03-29T13:06:13.516Z,20.03
2023-03-29T13:08:47.971Z,20.04
2023-03-29T13:11:32.472Z,20.38
2023-03-29T13:14:01.807Z,20.46
2023-03-29T13:16:35.944Z,20.53
2023-03-29T13:19:08.463Z,20.39
2023-03-29T13:22:06.333Z,20.50
2023-03-29T13:24:39.701Z,20.54
2023-03-29T13:27:25.317Z,20.52
2023-03-29T13:30:15.478Z,20.49
2023-03-29T13:33:13.993Z,20.58
2023-03-29T13:36:00.119Z,20.63
2023-03-29T13:38:31.675Z,20.36
2023-03-29T13:41:02.399Z,20.52
2023-03-29T13:43:41.273Z,20.57
2023-03-29T13:46:24.967Z,20.53
2023-03-29T13:49:06.849Z,20.36
2023-03-29T13:51:40.221Z,20.54
2023-03-29T13:54:15.581Z,20.54
2023-03-29T13:56:57.058Z,20.45
2023-03-29T13:59:49.279Z,20.35
2023-03-29T14:02:42.577Z,20.07
2023-03-29T14:05:13.562Z,20.20
2023-03-29T14:07:49.270Z,20.18
2023-03-29T14:10:21.489Z,20.33
2023-03-29T14:12:49.389Z,20.40
2023-03-29T14:15:42.512Z,20.34
2023-03-29T14:18:13.843Z,20.30
2023-03-29T14:20:46.144Z,20.41
2023-03-29T14:23:19.611Z,20.44
2023-03-29T14:25:46.757Z,20.34
2023-03-29T14:28:27.878Z,20.29
2023-03-29T14:30:56.805Z,20.36
2023-03-29T14:33:28.661Z,20.40
2023-03-29T14:35:57.089Z,20.44
2023-03-29T14:38:26.239Z,20.33
2023-03-29T14:40:54.972Z,20.21
2023-03-29T14:43:23.997Z,20.22
2023-03-29T14:45:50.980Z,20.20
2023-03-29T14:48:18.162Z,20.16
2023-03-29T14:50:46.497Z,20.25
2023-03-29T14:53:19.876Z,20.32
2023-03-29T14:55:51.653Z,20.23
2023-03-29T14:58:31.862Z,20.36
2023-03-29T15:01:07.957Z,20.43
2023-03-29T15:03:49.176Z,20.38
2023-03-29T15:06:18.489Z,20.33
2023-03-29T15:08:57.920Z,20.17
2023-03-29T15:11:30.006Z,20.06
2023-03-29T15:14:08.867Z,19.96
2023-03-29T15:16:43.893Z,20.02
2023-03-29T15:19:17.297Z,20.03
2023-03-29T15:21:45.310Z,20.07
2023-03-29T15:24:23.029Z,20.05
2023-03-29T15:27:17.172Z,19.83
2023-03-29T15:29:55.980Z,19.78
2023-03-29T15:32:24.791Z,19.67
2023-03-29T15:35:02.859Z,19.62
2023-03-29T15:37:29.700Z,19.60
2023-03-29T15:39:58.030Z,19.53
2023-03-29T15:42:24.990Z,19.55
2023-03-29T15:44:56.230Z,19.43
2023-03-29T15:47:22.979Z,19.41
2023-03-29T15:49:49.611Z,19.34
2023-03-29T15:52:16.902Z,19.30
2023-03-29T15:54:43.782Z,19.32
2023-03-29T15:57:15.844Z,19.35
2023-03-29T15:59:43.635Z,19.25
2023-03-29T16:02:23.308Z,19.15
2023-03-29T16:04:50.660Z,19.14
2023-03-29T16:07:18.964Z,19.09
2023-03-29T16:09:46.196Z,19.00
2023-03-29T16:12:13.523Z,18.90
2023-03-29T16:14:41.885Z,18.85
2023-03-29T16:17:09.589Z,18.79
2023-03-29T16:19:36.255Z,18.72
2023-03-29T16:22:07.235Z,18.67
2023-03-29T16:24:35.031Z,18.60
2023-03-29T16:27:02.650Z,18.54
2023-03-29T16:29:29.768Z,18.49
2023-03-29T16:31:56.490Z,18.41
2023-03-29T16:34:24.217Z,18.35
2023-03-29T16:36:50.965Z,18.32
2023-03-29T16:39:18.298Z,18.26
2023-03-29T16:41:48.431Z,18.13
2023-03-29T16:44:23.226Z,18.09
2023-03-29T16:46:51.606Z,18.03
2023-03-29T16:49:18.294Z,17.94
2023-03-29T16:51:48.403Z,17.86
2023-03-29T16:54:17.174Z,17.81
2023-03-29T16:56:43.983Z,17.70
2023-03-29T16:59:10.855Z,17.66
2023-03-29T17:01:38.908Z,17.61
2023-03-29T17:04:05.614Z,17.52
2023-03-29T17:06:32.892Z,17.45
2023-03-29T17:09:00.644Z,17.40
2023-03-29T17:11:28.328Z,17.31
2023-03-29T17:13:55.147Z,17.24
2023-03-29T17:16:21.894Z,17.08
2023-03-29T17:18:48.535Z,17.00
2023-03-29T17:21:15.449Z,16.92
2023-03-29T17:23:42.119Z,16.84
2023-03-29T17:26:08.734Z,16.78
2023-03-29T17:28:35.877Z,16.68
2023-03-29T17:31:08.760Z,16.57
2023-03-29T17:33:36.335Z,16.47
2023-03-29T17:36:04.461Z,16.39
2023-03-29T17:38:33.936Z,16.29
2023-03-29T17:41:01.535Z,16.20
2023-03-29T17:43:28.495Z,16.09
2023-03-29T17:45:55.647Z,15.98
2023-03-29T17:48:23.659Z,15.94
2023-03-29T17:50:50.651Z,15.84
2023-03-29T17:53:17.205Z,15.74
2023-03-29T17:55:43.871Z,15.69
2023-03-29T17:58:10.432Z,15.54
2023-03-29T18:00:37.370Z,15.48
2023-03-29T18:03:04.192Z,15.46
2023-03-29T18:05:30.904Z,15.47
2023-03-29T18:07:57.520Z,15.45
2023-03-29T18:10:24.420Z,15.40
2023-03-29T18:12:51.740Z,15.37
2023-03-29T18:15:18.479Z,15.28
2023-03-29T18:17:45.072Z,15.14
2023-03-29T18:20:12.800Z,15.11
2023-03-29T18:22:41.420Z,15.03
2023-03-29T18:25:09.685Z,14.95
2023-03-29T18:27:37.985Z,14.91
2023-03-29T18:30:06.520Z,14.88
2023-03-29T18:32:33.382Z,14.84
2023-03-29T18:35:02.289Z,14.80
2023-03-29T18:37:28.749Z,14.80
2023-03-29T18:39:57.452Z,14.76
2023-03-29T18:42:24.113Z,14.77
2023-03-29T18:44:51.270Z,14.78
2023-03-29T18:47:18.364Z,14.80
2023-03-29T18:49:45.032Z,14.80
2023-03-29T18:52:11.720Z,14.80
2023-03-29T18:54:38.665Z,14.80
2023-03-29T18:57:05.230Z,14.76
2023-03-29T18:59:31.836Z,14.73
2023-03-29T19:01:58.613Z,14.66
2023-03-29T19:04:27.146Z,14.58
2023-03-29T19:06:55.617Z,14.45
2023-03-29T19:09:22.894Z,14.51
2023-03-29T19:11:49.506Z,14.39
2023-03-29T19:14:17.403Z,14.34
2023-03-29T19:16:44.132Z,14.22
2023-03-29T19:19:10.851Z,14.07
2023-03-29T19:21:39.063Z,14.00
2023-03-29T19:24:07.750Z,13.88
2023-03-29T19:26:34.370Z,13.78
2023-03-29T19:29:01.485Z,13.65
2023-03-29T19:31:28.401Z,13.73
2023-03-29T19:33:55.350Z,13.75
2023-03-29T19:36:22.292Z,13.75
2023-03-29T19:38:51.622Z,13.71
2023-03-29T19:41:18.178Z,13.69
2023-03-29T19:43:44.816Z,13.74
2023-03-29T19:46:13.391Z,13.69
2023-03-29T19:48:40.365Z,13.59
2023-03-29T19:51:07.979Z,13.61
2023-03-29T19:53:38.150Z,13.61
2023-03-29T19:56:07.601Z,13.57
2023-03-29T19:58:34.196Z,13.51
2023-03-29T20:01:01.147Z,13.41
2023-03-29T20:03:28.471Z,13.35
2023-03-29T20:05:56.570Z,13.31
2023-03-29T20:08:24.843Z,13.34
2023-03-29T20:11:03.549Z,13.31
2023-03-29T20:13:38.197Z,13.31
2023-03-29T20:16:07.737Z,13.45
2023-03-29T20:18:34.234Z,13.51
2023-03-29T20:21:02.133Z,13.47
2023-03-29T20:23:28.901Z,13.44
2023-03-29T20:25:55.486Z,13.46
2023-03-29T20:28:23.595Z,13.32
2023-03-29T20:30:51.478Z,13.19
2023-03-29T20:33:19.557Z,13.02
2023-03-29T20:35:46.953Z,12.95
2023-03-29T20:38:14.307Z,12.93
2023-03-29T20:40:42.305Z,12.91
2023-03-29T20:43:13.352Z,12.89
2023-03-29T20:45:52.125Z,12.89
2023-03-29T20:48:23.057Z,12.95
2023-03-29T20:50:50.727Z,12.99
2023-03-29T20:53:18.381Z,13.02
2023-03-29T20:55:45.160Z,12.99
2023-03-29T20:58:13.261Z,12.92
2023-03-29T21:00:40.431Z,12.80
2023-03-29T21:03:08.645Z,12.76
2023-03-29T21:05:35.708Z,12.75
2023-03-29T21:08:04.169Z,12.75
2023-03-29T21:10:30.925Z,12.81
2023-03-29T21:13:00.438Z,12.86
2023-03-29T21:15:30.541Z,12.94
2023-03-29T21:17:57.777Z,12.96
2023-03-29T21:20:24.664Z,12.97
2023-03-29T21:22:51.686Z,12.94
2023-03-29T21:25:18.721Z,12.83
2023-03-29T21:27:45.413Z,12.70
2023-03-29T21:30:12.253Z,12.61
2023-03-29T21:32:39.217Z,12.54
2023-03-29T21:35:06.446Z,12.47
2023-03-29T21:37:33.250Z,12.36
2023-03-29T21:39:59.930Z,12.38
2023-03-29T21:42:26.608Z,12.40
2023-03-29T21:44:53.204Z,12.41
2023-03-29T21:47:19.803Z,12.42
2023-03-29T21:49:46.430Z,12.25
2023-03-29T21:52:13.054Z,11.98
2023-03-29T21:54:39.642Z,11.96
2023-03-29T21:57:06.385Z,11.92
2023-03-29T21:59:32.997Z,11.84
2023-03-29T22:01:59.666Z,11.81
2023-03-29T22:04:35.965Z,11.85
2023-03-29T22:07:04.405Z,11.77
2023-03-29T22:09:32.857Z,11.77
2023-03-29T22:11:59.878Z,11.69
2023-03-29T22:14:28.587Z,11.68
2023-03-29T22:16:55.404Z,11.70
2023-03-29T22:19:22.175Z,11.71
2023-03-29T22:21:48.761Z,11.71
2023-03-29T22:24:16.484Z,11.70
2023-03-29T22:26:44.974Z,11.72
2023-03-29T22:29:12.227Z,11.78
2023-03-29T22:31:39.486Z,11.80
2023-03-29T22:34:06.751Z,11.83
2023-03-29T22:36:33.613Z,11.79
2023-03-29T22:39:00.532Z,11.75
2023-03-29T22:41:28.250Z,11.75
2023-03-29T22:43:57.353Z,11.71
2023-03-29T22:46:24.220Z,11.69
2023-03-29T22:48:51.442Z,11.63
2023-03-29T22:51:18.315Z,11.61
2023-03-29T22:53:47.042Z,11.59
2023-03-29T22:56:15.475Z,11.58
2023-03-29T22:58:42.577Z,11.59
2023-03-29T23:01:09.430Z,11.56
2023-03-29T23:03:36.765Z,11.49
2023-03-29T23:06:03.782Z,11.43
2023-03-29T23:08:32.807Z,11.47
2023-03-29T23:10:59.906Z,11.43
2023-03-29T23:13:29.053Z,11.39
2023-03-29T23:16:01.076Z,11.35
2023-03-29T23:18:30.283Z,11.31
2023-03-29T23:20:58.904Z,11.27
2023-03-29T23:23:27.648Z,11.29
2023-03-29T23:25:55.971Z,11.28
2023-03-29T23:28:27.605Z,11.25
2023-03-29T23:31:03.284Z,11.17
2023-03-29T23:33:35.328Z,11.22
2023-03-29T23:36:04.634Z,11.22
2023-03-29T23:38:34.111Z,11.22
2023-03-29T23:41:03.419Z,11.16
2023-03-29T23:43:35.435Z,11.09
2023-03-29T23:46:07.771Z,11.05
2023-03-29T23:48:34.564Z,10.98
2023-03-29T23:51:02.408Z,11.05
2023-03-29T23:53:30.392Z,11.06
2023-03-29T23:56:02.098Z,11.11
2023-03-29T23:58:30.557Z,11.13
